sensor_id;sensor_type;location;lat;lon;timestamp;temperature;humidity
42227;DHT22;27892;52.378;13.122;2023-07-09T00:01:19;24.00;42.90
42227;DHT22;27892;52.378;13.122;2023-07-09T00:03:46;24.00;42.90
42227;DHT22;27892;52.378;13.122;2023-07-09T00:06:13;23.90;43.10
42227;DHT22;27892;52.378;13.122;2023-07-09T00:08:42;23.90;43.10
42227;DHT22;27892;52.378;13.122;2023-07-09T00:11:09;23.80;43.00
42227;DHT22;27892;52.378;13.122;2023-07-09T00:13:35;23.70;43.40
42227;DHT22;27892;52.378;13.122;2023-07-09T00:16:06;23.70;43.90
42227;DHT22;27892;52.378;13.122;2023-07-09T00:18:33;23.60;44.10
42227;DHT22;27892;52.378;13.122;2023-07-09T00:21:00;23.50;44.20
42227;DHT22;27892;52.378;13.122;2023-07-09T00:23:27;23.40;44.20
42227;DHT22;27892;52.378;13.122;2023-07-09T00:25:53;23.40;44.50
42227;DHT22;27892;52.378;13.122;2023-07-09T00:28:19;23.30;44.80
42227;DHT22;27892;52.378;13.122;2023-07-09T00:30:46;23.20;44.80
42227;DHT22;27892;52.378;13.122;2023-07-09T00:33:14;23.20;45.00
42227;DHT22;27892;52.378;13.122;2023-07-09T00:35:50;23.20;45.10
42227;DHT22;27892;52.378;13.122;2023-07-09T00:38:19;23.10;45.10
42227;DHT22;27892;52.378;13.122;2023-07-09T00:41:03;23.10;45.10
42227;DHT22;27892;52.378;13.122;2023-07-09T00:43:32;23.10;45.20
42227;DHT22;27892;52.378;13.122;2023-07-09T00:48:43;23.20;45.00
42227;DHT22;27892;52.378;13.122;2023-07-09T00:51:16;23.10;44.80
42227;DHT22;27892;52.378;13.122;2023-07-09T00:53:45;23.20;44.80
42227;DHT22;27892;52.378;13.122;2023-07-09T00:56:17;23.10;45.00
42227;DHT22;27892;52.378;13.122;2023-07-09T00:58:46;23.00;45.10
42227;DHT22;27892;52.378;13.122;2023-07-09T01:01:16;23.00;45.20
42227;DHT22;27892;52.378;13.122;2023-07-09T01:03:53;23.00;45.40
42227;DHT22;27892;52.378;13.122;2023-07-09T01:06:39;22.90;45.70
42227;DHT22;27892;52.378;13.122;2023-07-09T01:09:07;22.90;45.80
42227;DHT22;27892;52.378;13.122;2023-07-09T01:11:33;22.80;46.00
42227;DHT22;27892;52.378;13.122;2023-07-09T01:14:02;22.80;46.10
42227;DHT22;27892;52.378;13.122;2023-07-09T01:16:31;22.80;46.10
42227;DHT22;27892;52.378;13.122;2023-07-09T01:18:57;22.70;46.20
42227;DHT22;27892;52.378;13.122;2023-07-09T01:21:23;22.70;46.30
42227;DHT22;27892;52.378;13.122;2023-07-09T01:23:50;22.60;46.40
42227;DHT22;27892;52.378;13.122;2023-07-09T01:26:23;22.60;46.70
42227;DHT22;27892;52.378;13.122;2023-07-09T01:28:51;22.60;46.90
42227;DHT22;27892;52.378;13.122;2023-07-09T01:31:17;22.50;46.80
42227;DHT22;27892;52.378;13.122;2023-07-09T01:33:44;22.50;46.90
42227;DHT22;27892;52.378;13.122;2023-07-09T01:36:16;22.50;47.60
42227;DHT22;27892;52.378;13.122;2023-07-09T01:38:43;22.40;47.20
42227;DHT22;27892;52.378;13.122;2023-07-09T01:41:09;22.30;47.60
42227;DHT22;27892;52.378;13.122;2023-07-09T01:43:39;22.30;47.90
42227;DHT22;27892;52.378;13.122;2023-07-09T01:46:07;22.20;48.00
42227;DHT22;27892;52.378;13.122;2023-07-09T01:48:34;22.20;48.20
42227;DHT22;27892;52.378;13.122;2023-07-09T01:51:08;22.10;48.50
42227;DHT22;27892;52.378;13.122;2023-07-09T01:53:35;22.10;49.00
42227;DHT22;27892;52.378;13.122;2023-07-09T01:56:03;22.00;49.10
42227;DHT22;27892;52.378;13.122;2023-07-09T01:58:29;22.00;49.20
42227;DHT22;27892;52.378;13.122;2023-07-09T02:00:57;21.90;49.20
42227;DHT22;27892;52.378;13.122;2023-07-09T02:03:23;21.90;49.50
42227;DHT22;27892;52.378;13.122;2023-07-09T02:05:54;21.80;49.70
42227;DHT22;27892;52.378;13.122;2023-07-09T02:08:19;21.70;50.20
42227;DHT22;27892;52.378;13.122;2023-07-09T02:10:48;21.70;50.10
42227;DHT22;27892;52.378;13.122;2023-07-09T02:13:14;21.60;50.10
42227;DHT22;27892;52.378;13.122;2023-07-09T02:15:40;21.60;50.30
42227;DHT22;27892;52.378;13.122;2023-07-09T02:18:12;21.50;50.40
42227;DHT22;27892;52.378;13.122;2023-07-09T02:20:38;21.50;50.60
42227;DHT22;27892;52.378;13.122;2023-07-09T02:23:06;21.40;50.60
42227;DHT22;27892;52.378;13.122;2023-07-09T02:25:31;21.40;50.90
42227;DHT22;27892;52.378;13.122;2023-07-09T02:27:57;21.30;50.90
42227;DHT22;27892;52.378;13.122;2023-07-09T02:30:23;21.30;51.10
42227;DHT22;27892;52.378;13.122;2023-07-09T02:32:49;21.30;51.30
42227;DHT22;27892;52.378;13.122;2023-07-09T02:35:15;21.20;52.00
42227;DHT22;27892;52.378;13.122;2023-07-09T02:37:40;21.20;51.50
42227;DHT22;27892;52.378;13.122;2023-07-09T02:40:08;21.10;51.60
42227;DHT22;27892;52.378;13.122;2023-07-09T02:42:34;21.10;51.70
42227;DHT22;27892;52.378;13.122;2023-07-09T02:45:00;21.10;51.70
42227;DHT22;27892;52.378;13.122;2023-07-09T02:47:26;21.00;51.80
42227;DHT22;27892;52.378;13.122;2023-07-09T02:49:51;21.00;52.10
42227;DHT22;27892;52.378;13.122;2023-07-09T02:52:17;21.00;52.20
42227;DHT22;27892;52.378;13.122;2023-07-09T02:54:43;21.00;52.40
42227;DHT22;27892;52.378;13.122;2023-07-09T02:57:08;21.00;52.60
42227;DHT22;27892;52.378;13.122;2023-07-09T02:59:34;20.90;52.70
42227;DHT22;27892;52.378;13.122;2023-07-09T03:02:00;20.90;52.70
42227;DHT22;27892;52.378;13.122;2023-07-09T03:04:26;20.80;52.70
42227;DHT22;27892;52.378;13.122;2023-07-09T03:06:52;20.90;52.90
42227;DHT22;27892;52.378;13.122;2023-07-09T03:09:18;20.80;52.80
42227;DHT22;27892;52.378;13.122;2023-07-09T03:11:44;20.80;52.90
42227;DHT22;27892;52.378;13.122;2023-07-09T03:14:09;20.80;53.10
42227;DHT22;27892;52.378;13.122;2023-07-09T03:16:35;20.80;53.20
42227;DHT22;27892;52.378;13.122;2023-07-09T03:19:02;20.80;53.30
42227;DHT22;27892;52.378;13.122;2023-07-09T03:21:29;20.70;53.50
42227;DHT22;27892;52.378;13.122;2023-07-09T03:23:56;20.70;53.70
42227;DHT22;27892;52.378;13.122;2023-07-09T03:26:22;20.80;53.90
42227;DHT22;27892;52.378;13.122;2023-07-09T03:28:48;20.80;53.90
42227;DHT22;27892;52.378;13.122;2023-07-09T03:31:14;20.80;53.90
42227;DHT22;27892;52.378;13.122;2023-07-09T03:33:40;20.80;54.00
42227;DHT22;27892;52.378;13.122;2023-07-09T03:36:06;20.80;54.30
42227;DHT22;27892;52.378;13.122;2023-07-09T03:38:32;20.80;54.40
42227;DHT22;27892;52.378;13.122;2023-07-09T03:40:58;20.90;54.60
42227;DHT22;27892;52.378;13.122;2023-07-09T03:43:24;20.90;54.50
42227;DHT22;27892;52.378;13.122;2023-07-09T03:45:50;20.90;54.30
42227;DHT22;27892;52.378;13.122;2023-07-09T03:48:18;20.90;54.30
42227;DHT22;27892;52.378;13.122;2023-07-09T03:50:45;21.00;54.30
42227;DHT22;27892;52.378;13.122;2023-07-09T03:53:11;21.00;54.10
42227;DHT22;27892;52.378;13.122;2023-07-09T03:55:36;21.00;54.30
42227;DHT22;27892;52.378;13.122;2023-07-09T03:58:02;21.00;54.30
42227;DHT22;27892;52.378;13.122;2023-07-09T04:00:29;21.00;54.20
42227;DHT22;27892;52.378;13.122;2023-07-09T04:02:54;21.00;54.40
42227;DHT22;27892;52.378;13.122;2023-07-09T04:05:25;21.10;54.50
42227;DHT22;27892;52.378;13.122;2023-07-09T04:07:51;21.20;54.50
42227;DHT22;27892;52.378;13.122;2023-07-09T04:10:17;21.20;54.50
42227;DHT22;27892;52.378;13.122;2023-07-09T04:12:43;21.30;54.60
42227;DHT22;27892;52.378;13.122;2023-07-09T04:15:09;21.30;54.20
42227;DHT22;27892;52.378;13.122;2023-07-09T04:17:35;21.40;54.60
42227;DHT22;27892;52.378;13.122;2023-07-09T04:20:01;21.50;54.70
42227;DHT22;27892;52.378;13.122;2023-07-09T04:22:31;21.60;54.50
42227;DHT22;27892;52.378;13.122;2023-07-09T04:24:57;21.60;54.50
42227;DHT22;27892;52.378;13.122;2023-07-09T04:27:23;21.80;54.80
42227;DHT22;27892;52.378;13.122;2023-07-09T04:29:53;21.90;54.90
42227;DHT22;27892;52.378;13.122;2023-07-09T04:32:19;21.90;54.80
42227;DHT22;27892;52.378;13.122;2023-07-09T04:34:45;22.00;55.00
42227;DHT22;27892;52.378;13.122;2023-07-09T04:37:12;22.10;55.10
42227;DHT22;27892;52.378;13.122;2023-07-09T04:39:38;22.20;55.00
42227;DHT22;27892;52.378;13.122;2023-07-09T04:42:11;22.30;54.90
42227;DHT22;27892;52.378;13.122;2023-07-09T04:44:37;22.40;55.00
42227;DHT22;27892;52.378;13.122;2023-07-09T04:47:03;22.50;55.00
42227;DHT22;27892;52.378;13.122;2023-07-09T04:49:28;22.60;54.40
42227;DHT22;27892;52.378;13.122;2023-07-09T04:51:54;22.80;54.50
42227;DHT22;27892;52.378;13.122;2023-07-09T04:54:22;22.90;54.40
42227;DHT22;27892;52.378;13.122;2023-07-09T04:56:48;23.00;54.40
42227;DHT22;27892;52.378;13.122;2023-07-09T04:59:14;23.10;54.10
42227;DHT22;27892;52.378;13.122;2023-07-09T05:01:40;23.20;53.90
42227;DHT22;27892;52.378;13.122;2023-07-09T05:04:06;23.30;53.50
42227;DHT22;27892;52.378;13.122;2023-07-09T05:06:33;23.40;52.30
42227;DHT22;27892;52.378;13.122;2023-07-09T05:08:59;23.60;52.20
42227;DHT22;27892;52.378;13.122;2023-07-09T05:11:24;23.70;51.90
42227;DHT22;27892;52.378;13.122;2023-07-09T05:13:50;23.90;51.60
42227;DHT22;27892;52.378;13.122;2023-07-09T05:16:15;24.00;51.50
42227;DHT22;27892;52.378;13.122;2023-07-09T05:18:42;24.10;50.50
42227;DHT22;27892;52.378;13.122;2023-07-09T05:21:08;24.20;49.60
42227;DHT22;27892;52.378;13.122;2023-07-09T05:23:33;24.30;49.20
42227;DHT22;27892;52.378;13.122;2023-07-09T05:26:01;24.40;49.10
42227;DHT22;27892;52.378;13.122;2023-07-09T05:28:28;24.60;48.70
42227;DHT22;27892;52.378;13.122;2023-07-09T05:30:55;24.80;48.40
42227;DHT22;27892;52.378;13.122;2023-07-09T05:33:21;24.90;47.90
42227;DHT22;27892;52.378;13.122;2023-07-09T05:35:47;25.00;47.20
42227;DHT22;27892;52.378;13.122;2023-07-09T05:38:13;25.10;47.00
42227;DHT22;27892;52.378;13.122;2023-07-09T05:40:40;25.20;46.00
42227;DHT22;27892;52.378;13.122;2023-07-09T05:43:06;25.10;45.90
42227;DHT22;27892;52.378;13.122;2023-07-09T05:45:31;25.30;46.70
42227;DHT22;27892;52.378;13.122;2023-07-09T05:48:00;25.50;46.40
42227;DHT22;27892;52.378;13.122;2023-07-09T05:50:27;25.60;46.00
42227;DHT22;27892;52.378;13.122;2023-07-09T05:52:52;25.80;46.90
42227;DHT22;27892;52.378;13.122;2023-07-09T05:55:18;25.90;45.90
42227;DHT22;27892;52.378;13.122;2023-07-09T05:57:44;25.90;44.60
42227;DHT22;27892;52.378;13.122;2023-07-09T06:00:10;26.00;44.30
42227;DHT22;27892;52.378;13.122;2023-07-09T06:02:36;26.10;44.00
42227;DHT22;27892;52.378;13.122;2023-07-09T06:05:02;26.10;43.60
42227;DHT22;27892;52.378;13.122;2023-07-09T06:07:27;26.50;43.70
42227;DHT22;27892;52.378;13.122;2023-07-09T06:09:53;26.90;42.90
42227;DHT22;27892;52.378;13.122;2023-07-09T06:12:19;27.70;42.80
42227;DHT22;27892;52.378;13.122;2023-07-09T06:14:48;29.30;41.10
42227;DHT22;27892;52.378;13.122;2023-07-09T06:17:13;31.40;38.00
42227;DHT22;27892;52.378;13.122;2023-07-09T06:19:39;32.60;34.70
42227;DHT22;27892;52.378;13.122;2023-07-09T06:22:05;33.30;32.60
42227;DHT22;27892;52.378;13.122;2023-07-09T06:24:30;34.00;31.80
42227;DHT22;27892;52.378;13.122;2023-07-09T06:26:56;35.00;30.20
42227;DHT22;27892;52.378;13.122;2023-07-09T06:29:22;35.60;30.10
42227;DHT22;27892;52.378;13.122;2023-07-09T06:31:48;35.60;28.30
42227;DHT22;27892;52.378;13.122;2023-07-09T06:34:13;35.30;28.00
42227;DHT22;27892;52.378;13.122;2023-07-09T06:36:39;35.50;28.40
42227;DHT22;27892;52.378;13.122;2023-07-09T06:39:05;35.50;28.40
42227;DHT22;27892;52.378;13.122;2023-07-09T06:41:31;35.70;28.10
42227;DHT22;27892;52.378;13.122;2023-07-09T06:43:58;36.50;28.30
42227;DHT22;27892;52.378;13.122;2023-07-09T06:46:24;36.90;28.00
42227;DHT22;27892;52.378;13.122;2023-07-09T06:48:49;37.90;27.00
42227;DHT22;27892;52.378;13.122;2023-07-09T06:51:15;38.70;26.60
42227;DHT22;27892;52.378;13.122;2023-07-09T06:53:41;39.40;26.60
42227;DHT22;27892;52.378;13.122;2023-07-09T06:56:08;40.50;25.80
42227;DHT22;27892;52.378;13.122;2023-07-09T06:58:36;41.60;24.90
42227;DHT22;27892;52.378;13.122;2023-07-09T07:01:03;41.80;23.60
42227;DHT22;27892;52.378;13.122;2023-07-09T07:03:31;41.80;23.40
42227;DHT22;27892;52.378;13.122;2023-07-09T07:05:57;42.30;24.10
42227;DHT22;27892;52.378;13.122;2023-07-09T07:08:24;42.70;22.10
42227;DHT22;27892;52.378;13.122;2023-07-09T07:10:56;42.40;22.10
42227;DHT22;27892;52.378;13.122;2023-07-09T07:13:33;42.40;22.20
42227;DHT22;27892;52.378;13.122;2023-07-09T07:16:01;41.70;22.10
42227;DHT22;27892;52.378;13.122;2023-07-09T07:18:27;41.60;22.60
42227;DHT22;27892;52.378;13.122;2023-07-09T07:20:53;42.10;23.00
42227;DHT22;27892;52.378;13.122;2023-07-09T07:23:19;43.30;22.90
42227;DHT22;27892;52.378;13.122;2023-07-09T07:25:46;43.40;20.90
42227;DHT22;27892;52.378;13.122;2023-07-09T07:28:12;43.20;22.10
42227;DHT22;27892;52.378;13.122;2023-07-09T07:30:37;43.80;21.60
42227;DHT22;27892;52.378;13.122;2023-07-09T07:33:03;44.10;21.50
42227;DHT22;27892;52.378;13.122;2023-07-09T07:35:29;44.50;21.00
42227;DHT22;27892;52.378;13.122;2023-07-09T07:37:54;45.10;21.40
42227;DHT22;27892;52.378;13.122;2023-07-09T07:40:20;45.90;20.00
42227;DHT22;27892;52.378;13.122;2023-07-09T07:42:46;46.20;20.00
42227;DHT22;27892;52.378;13.122;2023-07-09T07:45:12;44.50;19.50
42227;DHT22;27892;52.378;13.122;2023-07-09T07:47:37;42.90;21.00
42227;DHT22;27892;52.378;13.122;2023-07-09T07:50:06;43.40;21.50
42227;DHT22;27892;52.378;13.122;2023-07-09T07:52:32;44.50;20.60
42227;DHT22;27892;52.378;13.122;2023-07-09T07:54:58;44.50;19.80
42227;DHT22;27892;52.378;13.122;2023-07-09T07:57:25;44.50;20.10
42227;DHT22;27892;52.378;13.122;2023-07-09T07:59:51;44.90;20.40
42227;DHT22;27892;52.378;13.122;2023-07-09T08:02:17;45.40;20.00
42227;DHT22;27892;52.378;13.122;2023-07-09T08:04:43;45.60;19.80
42227;DHT22;27892;52.378;13.122;2023-07-09T08:07:10;45.30;20.30
42227;DHT22;27892;52.378;13.122;2023-07-09T08:09:36;44.40;21.00
42227;DHT22;27892;52.378;13.122;2023-07-09T08:12:03;43.30;21.50
42227;DHT22;27892;52.378;13.122;2023-07-09T08:14:35;42.00;22.00
42227;DHT22;27892;52.378;13.122;2023-07-09T08:17:01;40.90;22.20
42227;DHT22;27892;52.378;13.122;2023-07-09T08:19:27;39.90;23.90
42227;DHT22;27892;52.378;13.122;2023-07-09T08:21:53;39.30;24.50
42227;DHT22;27892;52.378;13.122;2023-07-09T08:24:18;39.10;24.80
42227;DHT22;27892;52.378;13.122;2023-07-09T08:26:44;38.90;24.50
42227;DHT22;27892;52.378;13.122;2023-07-09T08:29:10;38.70;25.20
42227;DHT22;27892;52.378;13.122;2023-07-09T08:31:36;38.60;25.70
42227;DHT22;27892;52.378;13.122;2023-07-09T08:34:02;38.70;25.20
42227;DHT22;27892;52.378;13.122;2023-07-09T08:36:27;38.60;24.80
42227;DHT22;27892;52.378;13.122;2023-07-09T08:38:53;38.90;25.10
42227;DHT22;27892;52.378;13.122;2023-07-09T08:44:07;38.90;24.10
42227;DHT22;27892;52.378;13.122;2023-07-09T08:50:02;38.00;24.60
42227;DHT22;27892;52.378;13.122;2023-07-09T08:52:20;37.80;25.20
42227;DHT22;27892;52.378;13.122;2023-07-09T08:54:50;37.70;25.80
42227;DHT22;27892;52.378;13.122;2023-07-09T08:57:27;38.00;26.40
42227;DHT22;27892;52.378;13.122;2023-07-09T09:02:43;38.40;26.50
42227;DHT22;27892;52.378;13.122;2023-07-09T09:05:11;38.40;25.70
42227;DHT22;27892;52.378;13.122;2023-07-09T09:07:43;38.50;25.70
42227;DHT22;27892;52.378;13.122;2023-07-09T09:10:24;38.60;26.10
42227;DHT22;27892;52.378;13.122;2023-07-09T09:13:08;38.30;24.10
42227;DHT22;27892;52.378;13.122;2023-07-09T09:15:37;38.10;24.80
42227;DHT22;27892;52.378;13.122;2023-07-09T09:18:24;38.10;25.10
42227;DHT22;27892;52.378;13.122;2023-07-09T09:24:02;37.20;23.80
42227;DHT22;27892;52.378;13.122;2023-07-09T09:26:35;37.20;24.80
42227;DHT22;27892;52.378;13.122;2023-07-09T09:29:11;37.40;25.20
42227;DHT22;27892;52.378;13.122;2023-07-09T09:31:36;37.30;24.90
42227;DHT22;27892;52.378;13.122;2023-07-09T09:34:02;37.50;25.50
42227;DHT22;27892;52.378;13.122;2023-07-09T09:36:28;37.70;24.40
42227;DHT22;27892;52.378;13.122;2023-07-09T09:38:54;37.90;25.10
42227;DHT22;27892;52.378;13.122;2023-07-09T09:41:25;37.90;24.40
42227;DHT22;27892;52.378;13.122;2023-07-09T09:43:53;37.90;24.50
42227;DHT22;27892;52.378;13.122;2023-07-09T09:46:22;38.10;24.90
42227;DHT22;27892;52.378;13.122;2023-07-09T09:48:51;38.20;23.60
42227;DHT22;27892;52.378;13.122;2023-07-09T09:51:19;38.00;22.80
42227;DHT22;27892;52.378;13.122;2023-07-09T09:53:58;38.00;23.00
42227;DHT22;27892;52.378;13.122;2023-07-09T09:56:33;37.90;24.10
42227;DHT22;27892;52.378;13.122;2023-07-09T09:58:59;38.10;24.70
42227;DHT22;27892;52.378;13.122;2023-07-09T10:01:31;38.30;24.20
42227;DHT22;27892;52.378;13.122;2023-07-09T10:03:59;38.40;24.20
42227;DHT22;27892;52.378;13.122;2023-07-09T10:11:58;38.40;24.00
42227;DHT22;27892;52.378;13.122;2023-07-09T10:17:11;38.70;23.70
42227;DHT22;27892;52.378;13.122;2023-07-09T10:26:01;38.90;24.20
42227;DHT22;27892;52.378;13.122;2023-07-09T10:31:20;39.20;23.80
42227;DHT22;27892;52.378;13.122;2023-07-09T10:39:19;39.20;23.00
42227;DHT22;27892;52.378;13.122;2023-07-09T10:41:49;39.30;22.20
42227;DHT22;27892;52.378;13.122;2023-07-09T10:46:47;39.20;22.50
42227;DHT22;27892;52.378;13.122;2023-07-09T10:49:16;39.30;22.70
42227;DHT22;27892;52.378;13.122;2023-07-09T10:51:54;39.70;23.50
42227;DHT22;27892;52.378;13.122;2023-07-09T10:57:22;38.80;22.00
42227;DHT22;27892;52.378;13.122;2023-07-09T10:59:51;38.90;22.60
42227;DHT22;27892;52.378;13.122;2023-07-09T11:02:24;39.20;22.40
42227;DHT22;27892;52.378;13.122;2023-07-09T11:05:00;39.20;22.90
42227;DHT22;27892;52.378;13.122;2023-07-09T11:07:36;38.90;21.70
42227;DHT22;27892;52.378;13.122;2023-07-09T11:10:29;38.70;21.80
42227;DHT22;27892;52.378;13.122;2023-07-09T11:13:11;38.20;21.80
42227;DHT22;27892;52.378;13.122;2023-07-09T11:15:43;38.60;23.40
42227;DHT22;27892;52.378;13.122;2023-07-09T11:18:16;39.10;23.40
42227;DHT22;27892;52.378;13.122;2023-07-09T11:20:45;39.40;22.00
42227;DHT22;27892;52.378;13.122;2023-07-09T11:23:20;39.30;21.80
42227;DHT22;27892;52.378;13.122;2023-07-09T11:26:09;39.50;22.10
42227;DHT22;27892;52.378;13.122;2023-07-09T11:28:38;39.10;21.30
42227;DHT22;27892;52.378;13.122;2023-07-09T11:31:16;38.80;21.00
42227;DHT22;27892;52.378;13.122;2023-07-09T11:33:48;38.80;21.70
42227;DHT22;27892;52.378;13.122;2023-07-09T11:36:25;39.20;22.60
42227;DHT22;27892;52.378;13.122;2023-07-09T11:38:51;39.70;22.60
42227;DHT22;27892;52.378;13.122;2023-07-09T11:43:53;39.50;20.90
42227;DHT22;27892;52.378;13.122;2023-07-09T11:46:28;39.50;21.60
42227;DHT22;27892;52.378;13.122;2023-07-09T11:48:55;39.70;22.50
42227;DHT22;27892;52.378;13.122;2023-07-09T11:51:34;39.80;22.00
42227;DHT22;27892;52.378;13.122;2023-07-09T11:54:02;40.10;22.80
42227;DHT22;27892;52.378;13.122;2023-07-09T11:56:28;40.30;22.10
42227;DHT22;27892;52.378;13.122;2023-07-09T11:58:56;40.50;21.80
42227;DHT22;27892;52.378;13.122;2023-07-09T12:01:36;40.50;21.70
42227;DHT22;27892;52.378;13.122;2023-07-09T12:04:05;40.40;21.80
42227;DHT22;27892;52.378;13.122;2023-07-09T12:06:33;40.50;22.60
42227;DHT22;27892;52.378;13.122;2023-07-09T12:08:59;40.70;22.50
42227;DHT22;27892;52.378;13.122;2023-07-09T12:11:28;40.90;21.60
42227;DHT22;27892;52.378;13.122;2023-07-09T12:13:54;40.90;21.50
42227;DHT22;27892;52.378;13.122;2023-07-09T12:16:34;40.70;21.20
42227;DHT22;27892;52.378;13.122;2023-07-09T12:19:00;40.00;21.00
42227;DHT22;27892;52.378;13.122;2023-07-09T12:21:26;39.40;20.70
42227;DHT22;27892;52.378;13.122;2023-07-09T12:23:55;39.20;21.00
42227;DHT22;27892;52.378;13.122;2023-07-09T12:26:22;39.10;21.90
42227;DHT22;27892;52.378;13.122;2023-07-09T12:28:56;39.30;21.70
42227;DHT22;27892;52.378;13.122;2023-07-09T12:31:28;39.40;21.00
42227;DHT22;27892;52.378;13.122;2023-07-09T12:33:55;39.70;21.70
42227;DHT22;27892;52.378;13.122;2023-07-09T12:36:24;39.90;22.50
42227;DHT22;27892;52.378;13.122;2023-07-09T12:39:01;40.20;21.80
42227;DHT22;27892;52.378;13.122;2023-07-09T12:41:35;40.10;21.40
42227;DHT22;27892;52.378;13.122;2023-07-09T12:44:01;39.60;20.90
42227;DHT22;27892;52.378;13.122;2023-07-09T12:46:27;39.50;21.10
42227;DHT22;27892;52.378;13.122;2023-07-09T12:48:55;39.60;21.10
42227;DHT22;27892;52.378;13.122;2023-07-09T12:51:23;39.50;21.40
42227;DHT22;27892;52.378;13.122;2023-07-09T12:54:15;39.80;21.80
42227;DHT22;27892;52.378;13.122;2023-07-09T12:56:41;39.80;21.20
42227;DHT22;27892;52.378;13.122;2023-07-09T12:59:22;39.50;21.20
42227;DHT22;27892;52.378;13.122;2023-07-09T13:02:37;39.50;21.00
42227;DHT22;27892;52.378;13.122;2023-07-09T13:04:39;39.50;22.00
42227;DHT22;27892;52.378;13.122;2023-07-09T13:07:18;39.70;22.20
42227;DHT22;27892;52.378;13.122;2023-07-09T13:09:55;39.80;22.30
42227;DHT22;27892;52.378;13.122;2023-07-09T13:12:30;39.50;21.00
42227;DHT22;27892;52.378;13.122;2023-07-09T13:14:56;39.10;20.50
42227;DHT22;27892;52.378;13.122;2023-07-09T13:17:22;38.90;21.00
42227;DHT22;27892;52.378;13.122;2023-07-09T13:19:48;39.10;21.70
42227;DHT22;27892;52.378;13.122;2023-07-09T13:22:21;39.00;22.00
42227;DHT22;27892;52.378;13.122;2023-07-09T13:24:47;39.40;21.80
42227;DHT22;27892;52.378;13.122;2023-07-09T13:27:16;39.70;21.20
42227;DHT22;27892;52.378;13.122;2023-07-09T13:29:42;40.00;21.30
42227;DHT22;27892;52.378;13.122;2023-07-09T13:32:12;40.30;21.30
42227;DHT22;27892;52.378;13.122;2023-07-09T13:34:39;40.40;21.20
42227;DHT22;27892;52.378;13.122;2023-07-09T13:37:13;40.30;20.90
42227;DHT22;27892;52.378;13.122;2023-07-09T13:39:39;40.60;20.70
42227;DHT22;27892;52.378;13.122;2023-07-09T13:42:11;40.00;20.60
42227;DHT22;27892;52.378;13.122;2023-07-09T13:44:39;40.30;20.90
42227;DHT22;27892;52.378;13.122;2023-07-09T13:47:07;40.60;20.80
42227;DHT22;27892;52.378;13.122;2023-07-09T13:49:34;40.90;20.30
42227;DHT22;27892;52.378;13.122;2023-07-09T13:52:00;41.50;20.40
42227;DHT22;27892;52.378;13.122;2023-07-09T13:54:31;42.20;21.90
42227;DHT22;27892;52.378;13.122;2023-07-09T13:57:02;42.90;20.80
42227;DHT22;27892;52.378;13.122;2023-07-09T13:59:32;43.60;20.40
42227;DHT22;27892;52.378;13.122;2023-07-09T14:01:58;44.00;19.90
42227;DHT22;27892;52.378;13.122;2023-07-09T14:04:26;44.30;20.00
42227;DHT22;27892;52.378;13.122;2023-07-09T14:06:53;44.50;19.10
42227;DHT22;27892;52.378;13.122;2023-07-09T14:09:19;44.50;19.30
42227;DHT22;27892;52.378;13.122;2023-07-09T14:11:48;44.50;18.60
42227;DHT22;27892;52.378;13.122;2023-07-09T14:14:20;44.30;18.40
42227;DHT22;27892;52.378;13.122;2023-07-09T14:16:47;44.10;18.40
42227;DHT22;27892;52.378;13.122;2023-07-09T14:19:21;43.80;19.10
42227;DHT22;27892;52.378;13.122;2023-07-09T14:21:48;43.70;18.80
42227;DHT22;27892;52.378;13.122;2023-07-09T14:24:32;43.20;18.80
42227;DHT22;27892;52.378;13.122;2023-07-09T14:26:58;42.50;18.50
42227;DHT22;27892;52.378;13.122;2023-07-09T14:29:24;41.80;19.40
42227;DHT22;27892;52.378;13.122;2023-07-09T14:31:51;40.80;19.30
42227;DHT22;27892;52.378;13.122;2023-07-09T14:34:32;40.60;20.40
42227;DHT22;27892;52.378;13.122;2023-07-09T14:36:59;40.50;21.00
42227;DHT22;27892;52.378;13.122;2023-07-09T14:39:27;40.50;20.40
42227;DHT22;27892;52.378;13.122;2023-07-09T14:41:55;40.10;20.70
42227;DHT22;27892;52.378;13.122;2023-07-09T14:44:29;39.60;20.30
42227;DHT22;27892;52.378;13.122;2023-07-09T14:46:57;39.10;20.70
42227;DHT22;27892;52.378;13.122;2023-07-09T14:49:24;39.00;21.20
42227;DHT22;27892;52.378;13.122;2023-07-09T14:51:51;38.90;21.20
42227;DHT22;27892;52.378;13.122;2023-07-09T14:54:22;38.90;21.50
42227;DHT22;27892;52.378;13.122;2023-07-09T14:56:49;38.60;20.90
42227;DHT22;27892;52.378;13.122;2023-07-09T14:59:15;38.40;22.00
42227;DHT22;27892;52.378;13.122;2023-07-09T15:01:41;38.40;21.80
42227;DHT22;27892;52.378;13.122;2023-07-09T15:06:54;38.30;22.30
42227;DHT22;27892;52.378;13.122;2023-07-09T15:09:22;38.30;23.40
42227;DHT22;27892;52.378;13.122;2023-07-09T15:11:53;38.30;23.70
42227;DHT22;27892;52.378;13.122;2023-07-09T15:14:20;38.30;23.60
42227;DHT22;27892;52.378;13.122;2023-07-09T15:16:47;38.20;22.70
42227;DHT22;27892;52.378;13.122;2023-07-09T15:19:16;37.90;22.50
42227;DHT22;27892;52.378;13.122;2023-07-09T15:21:42;37.60;21.80
42227;DHT22;27892;52.378;13.122;2023-07-09T15:24:23;37.50;22.10
42227;DHT22;27892;52.378;13.122;2023-07-09T15:26:52;37.50;23.30
42227;DHT22;27892;52.378;13.122;2023-07-09T15:29:22;37.40;24.60
42227;DHT22;27892;52.378;13.122;2023-07-09T15:31:48;37.30;25.20
42227;DHT22;27892;52.378;13.122;2023-07-09T15:34:14;37.40;24.60
42227;DHT22;27892;52.378;13.122;2023-07-09T15:36:46;37.40;25.00
42227;DHT22;27892;52.378;13.122;2023-07-09T15:39:14;37.50;25.10
42227;DHT22;27892;52.378;13.122;2023-07-09T15:41:39;37.50;24.30
42227;DHT22;27892;52.378;13.122;2023-07-09T15:44:11;37.50;24.80
42227;DHT22;27892;52.378;13.122;2023-07-09T15:46:39;37.50;24.60
42227;DHT22;27892;52.378;13.122;2023-07-09T15:49:05;37.40;25.40
42227;DHT22;27892;52.378;13.122;2023-07-09T15:51:31;37.30;24.20
42227;DHT22;27892;52.378;13.122;2023-07-09T15:53:57;37.20;23.90
42227;DHT22;27892;52.378;13.122;2023-07-09T15:56:26;37.20;25.40
42227;DHT22;27892;52.378;13.122;2023-07-09T15:58:53;37.10;24.30
42227;DHT22;27892;52.378;13.122;2023-07-09T16:01:19;36.90;23.10
42227;DHT22;27892;52.378;13.122;2023-07-09T16:03:47;36.90;23.30
42227;DHT22;27892;52.378;13.122;2023-07-09T16:06:14;37.00;24.30
42227;DHT22;27892;52.378;13.122;2023-07-09T16:08:40;37.00;25.40
42227;DHT22;27892;52.378;13.122;2023-07-09T16:11:21;36.90;24.40